sensor_id;sensor_type;location;lat;lon;timestamp;P1;durP1;ratioP1;P2;durP2;ratioP2
18206;SDS011;9229;52.354;20.886;2023-02-02T00:03:34;12.75;;;6.95;;
18206;SDS011;9229;52.354;20.886;2023-02-02T00:08:36;10.15;;;6.78;;
18206;SDS011;9229;52.354;20.886;2023-02-02T00:13:40;9.43;;;7.03;;
18206;SDS011;9229;52.354;20.886;2023-02-02T00:18:42;14.27;;;7.07;;
18206;SDS011;9229;52.354;20.886;2023-02-02T00:23:44;10.57;;;6.88;;
18206;SDS011;9229;52.354;20.886;2023-02-02T00:28:51;6.60;;;5.90;;
18206;SDS011;9229;52.354;20.886;2023-02-02T00:33:53;7.47;;;6.07;;
18206;SDS011;9229;52.354;20.886;2023-02-02T00:38:56;9.50;;;6.40;;
18206;SDS011;9229;52.354;20.886;2023-02-02T00:43:59;7.68;;;6.38;;
18206;SDS011;9229;52.354;20.886;2023-02-02T00:49:23;8.52;;;6.53;;
18206;SDS011;9229;52.354;20.886;2023-02-02T00:54:25;11.25;;;7.05;;
18206;SDS011;9229;52.354;20.886;2023-02-02T00:59:36;13.77;;;7.75;;
18206;SDS011;9229;52.354;20.886;2023-02-02T01:04:45;8.13;;;5.53;;
18206;SDS011;9229;52.354;20.886;2023-02-02T01:09:47;6.32;;;4.82;;
18206;SDS011;9229;52.354;20.886;2023-02-02T01:14:50;7.65;;;5.32;;
18206;SDS011;9229;52.354;20.886;2023-02-02T01:19:55;13.82;;;6.32;;
18206;SDS011;9229;52.354;20.886;2023-02-02T01:24:58;20.25;;;7.10;;
18206;SDS011;9229;52.354;20.886;2023-02-02T01:30:02;12.95;;;6.38;;
18206;SDS011;9229;52.354;20.886;2023-02-02T01:35:04;7.00;;;6.20;;
18206;SDS011;9229;52.354;20.886;2023-02-02T01:40:07;8.88;;;6.40;;
18206;SDS011;9229;52.354;20.886;2023-02-02T01:50:26;8.63;;;6.32;;
18206;SDS011;9229;52.354;20.886;2023-02-02T01:55:31;11.02;;;6.88;;
18206;SDS011;9229;52.354;20.886;2023-02-02T02:00:37;7.07;;;6.22;;
18206;SDS011;9229;52.354;20.886;2023-02-02T02:05:43;14.55;;;7.07;;
18206;SDS011;9229;52.354;20.886;2023-02-02T02:10:48;24.73;;;8.27;;
18206;SDS011;9229;52.354;20.886;2023-02-02T02:15:56;14.13;;;7.75;;
18206;SDS011;9229;52.354;20.886;2023-02-02T02:21:25;18.85;;;8.25;;
18206;SDS011;9229;52.354;20.886;2023-02-02T02:26:59;16.33;;;7.38;;
18206;SDS011;9229;52.354;20.886;2023-02-02T02:32:18;17.77;;;7.45;;
18206;SDS011;9229;52.354;20.886;2023-02-02T02:37:29;7.43;;;5.55;;
18206;SDS011;9229;52.354;20.886;2023-02-02T02:42:39;7.53;;;4.90;;
18206;SDS011;9229;52.354;20.886;2023-02-02T02:47:47;5.70;;;4.20;;
18206;SDS011;9229;52.354;20.886;2023-02-02T02:52:52;4.93;;;4.50;;
18206;SDS011;9229;52.354;20.886;2023-02-02T02:58:04;4.47;;;3.83;;
18206;SDS011;9229;52.354;20.886;2023-02-02T03:03:13;7.75;;;4.47;;
18206;SDS011;9229;52.354;20.886;2023-02-02T03:08:23;12.73;;;5.35;;
18206;SDS011;9229;52.354;20.886;2023-02-02T03:13:29;17.13;;;6.85;;
18206;SDS011;9229;52.354;20.886;2023-02-02T03:18:33;13.68;;;6.07;;
18206;SDS011;9229;52.354;20.886;2023-02-02T03:23:36;11.25;;;6.20;;
18206;SDS011;9229;52.354;20.886;2023-02-02T03:28:38;9.32;;;4.75;;
18206;SDS011;9229;52.354;20.886;2023-02-02T03:33:42;13.73;;;5.68;;
18206;SDS011;9229;52.354;20.886;2023-02-02T03:38:44;18.00;;;5.63;;
18206;SDS011;9229;52.354;20.886;2023-02-02T03:43:46;12.88;;;5.43;;
18206;SDS011;9229;52.354;20.886;2023-02-02T03:48:49;12.93;;;5.00;;
18206;SDS011;9229;52.354;20.886;2023-02-02T03:53:51;9.98;;;4.85;;
18206;SDS011;9229;52.354;20.886;2023-02-02T03:58:53;12.15;;;5.28;;
18206;SDS011;9229;52.354;20.886;2023-02-02T04:03:57;17.13;;;5.15;;
18206;SDS011;9229;52.354;20.886;2023-02-02T04:08:59;9.98;;;6.05;;
18206;SDS011;9229;52.354;20.886;2023-02-02T04:14:03;12.88;;;6.32;;
18206;SDS011;9229;52.354;20.886;2023-02-02T04:19:09;14.02;;;6.97;;
18206;SDS011;9229;52.354;20.886;2023-02-02T04:24:18;16.23;;;4.93;;
18206;SDS011;9229;52.354;20.886;2023-02-02T04:29:20;12.38;;;5.20;;
18206;SDS011;9229;52.354;20.886;2023-02-02T04:34:23;11.38;;;5.38;;
18206;SDS011;9229;52.354;20.886;2023-02-02T04:39:27;12.55;;;4.47;;
18206;SDS011;9229;52.354;20.886;2023-02-02T04:44:30;8.32;;;4.40;;
18206;SDS011;9229;52.354;20.886;2023-02-02T04:49:34;13.45;;;4.60;;
18206;SDS011;9229;52.354;20.886;2023-02-02T04:54:36;12.75;;;4.88;;
18206;SDS011;9229;52.354;20.886;2023-02-02T04:59:38;21.92;;;4.82;;
18206;SDS011;9229;52.354;20.886;2023-02-02T05:04:41;9.68;;;4.20;;
18206;SDS011;9229;52.354;20.886;2023-02-02T05:09:43;16.33;;;5.03;;
18206;SDS011;9229;52.354;20.886;2023-02-02T05:14:45;23.50;;;5.85;;
18206;SDS011;9229;52.354;20.886;2023-02-02T05:19:49;21.73;;;6.60;;
18206;SDS011;9229;52.354;20.886;2023-02-02T05:24:51;11.90;;;5.18;;
18206;SDS011;9229;52.354;20.886;2023-02-02T05:29:54;9.60;;;3.90;;
18206;SDS011;9229;52.354;20.886;2023-02-02T05:34:57;11.48;;;4.97;;
18206;SDS011;9229;52.354;20.886;2023-02-02T05:39:59;12.63;;;4.78;;
18206;SDS011;9229;52.354;20.886;2023-02-02T05:45:02;15.48;;;4.68;;
18206;SDS011;9229;52.354;20.886;2023-02-02T05:50:07;13.63;;;4.32;;
18206;SDS011;9229;52.354;20.886;2023-02-02T05:55:09;9.15;;;3.90;;
18206;SDS011;9229;52.354;20.886;2023-02-02T06:00:12;13.00;;;5.20;;
18206;SDS011;9229;52.354;20.886;2023-02-02T06:05:17;15.15;;;6.60;;
18206;SDS011;9229;52.354;20.886;2023-02-02T06:10:22;14.68;;;5.30;;
18206;SDS011;9229;52.354;20.886;2023-02-02T06:15:24;23.00;;;5.65;;
18206;SDS011;9229;52.354;20.886;2023-02-02T06:20:29;16.67;;;5.57;;
18206;SDS011;9229;52.354;20.886;2023-02-02T06:25:31;26.13;;;8.32;;
18206;SDS011;9229;52.354;20.886;2023-02-02T06:30:34;17.65;;;6.38;;
18206;SDS011;9229;52.354;20.886;2023-02-02T06:35:38;24.95;;;5.97;;
18206;SDS011;9229;52.354;20.886;2023-02-02T06:46:55;24.63;;;5.60;;
18206;SDS011;9229;52.354;20.886;2023-02-02T06:51:59;15.00;;;5.07;;
18206;SDS011;9229;52.354;20.886;2023-02-02T06:57:04;11.68;;;5.95;;
18206;SDS011;9229;52.354;20.886;2023-02-02T07:02:09;13.57;;;6.20;;
18206;SDS011;9229;52.354;20.886;2023-02-02T07:07:15;5.65;;;4.75;;
18206;SDS011;9229;52.354;20.886;2023-02-02T07:12:18;12.68;;;5.50;;
18206;SDS011;9229;52.354;20.886;2023-02-02T07:17:20;14.18;;;4.65;;
18206;SDS011;9229;52.354;20.886;2023-02-02T07:22:23;16.92;;;5.30;;
18206;SDS011;9229;52.354;20.886;2023-02-02T07:27:25;12.32;;;4.75;;
18206;SDS011;9229;52.354;20.886;2023-02-02T07:32:28;8.63;;;4.80;;
18206;SDS011;9229;52.354;20.886;2023-02-02T07:37:32;9.25;;;4.65;;
18206;SDS011;9229;52.354;20.886;2023-02-02T07:42:33;5.93;;;4.65;;
18206;SDS011;9229;52.354;20.886;2023-02-02T07:47:36;7.55;;;4.93;;
18206;SDS011;9229;52.354;20.886;2023-02-02T07:52:40;10.05;;;5.40;;
18206;SDS011;9229;52.354;20.886;2023-02-02T07:57:43;13.93;;;6.00;;
18206;SDS011;9229;52.354;20.886;2023-02-02T08:02:47;10.10;;;6.10;;
18206;SDS011;9229;52.354;20.886;2023-02-02T08:07:50;20.35;;;8.65;;
18206;SDS011;9229;52.354;20.886;2023-02-02T08:12:52;15.38;;;8.20;;
18206;SDS011;9229;52.354;20.886;2023-02-02T08:17:54;9.75;;;6.18;;
18206;SDS011;9229;52.354;20.886;2023-02-02T08:22:59;11.20;;;5.80;;
18206;SDS011;9229;52.354;20.886;2023-02-02T08:28:01;7.97;;;5.78;;
18206;SDS011;9229;52.354;20.886;2023-02-02T08:33:06;9.52;;;5.85;;
18206;SDS011;9229;52.354;20.886;2023-02-02T08:38:11;6.18;;;5.15;;
18206;SDS011;9229;52.354;20.886;2023-02-02T08:43:13;8.75;;;5.88;;
18206;SDS011;9229;52.354;20.886;2023-02-02T08:48:16;10.43;;;7.18;;
18206;SDS011;9229;52.354;20.886;2023-02-02T08:53:22;14.38;;;7.13;;
18206;SDS011;9229;52.354;20.886;2023-02-02T08:58:25;9.10;;;5.68;;
18206;SDS011;9229;52.354;20.886;2023-02-02T09:03:27;10.02;;;5.32;;
18206;SDS011;9229;52.354;20.886;2023-02-02T09:08:30;6.32;;;5.35;;
18206;SDS011;9229;52.354;20.886;2023-02-02T09:13:33;7.25;;;5.25;;
18206;SDS011;9229;52.354;20.886;2023-02-02T09:18:36;8.95;;;6.25;;
18206;SDS011;9229;52.354;20.886;2023-02-02T09:23:40;5.50;;;4.97;;
18206;SDS011;9229;52.354;20.886;2023-02-02T09:28:43;4.97;;;4.57;;
18206;SDS011;9229;52.354;20.886;2023-02-02T09:33:47;4.63;;;4.22;;
18206;SDS011;9229;52.354;20.886;2023-02-02T09:38:51;9.52;;;5.55;;
18206;SDS011;9229;52.354;20.886;2023-02-02T09:43:55;7.32;;;5.18;;
18206;SDS011;9229;52.354;20.886;2023-02-02T09:49:07;4.75;;;4.38;;
18206;SDS011;9229;52.354;20.886;2023-02-02T09:54:15;6.30;;;4.43;;
18206;SDS011;9229;52.354;20.886;2023-02-02T09:59:21;7.43;;;4.28;;
18206;SDS011;9229;52.354;20.886;2023-02-02T10:04:33;8.75;;;4.00;;
18206;SDS011;9229;52.354;20.886;2023-02-02T10:09:39;7.47;;;4.97;;
18206;SDS011;9229;52.354;20.886;2023-02-02T10:14:48;4.07;;;3.78;;
18206;SDS011;9229;52.354;20.886;2023-02-02T10:19:59;4.00;;;3.70;;
18206;SDS011;9229;52.354;20.886;2023-02-02T10:25:10;4.45;;;3.75;;
18206;SDS011;9229;52.354;20.886;2023-02-02T10:30:14;3.42;;;3.22;;
18206;SDS011;9229;52.354;20.886;2023-02-02T10:35:31;6.68;;;4.00;;
18206;SDS011;9229;52.354;20.886;2023-02-02T10:40:41;6.05;;;4.30;;
18206;SDS011;9229;52.354;20.886;2023-02-02T10:45:52;6.00;;;3.72;;
18206;SDS011;9229;52.354;20.886;2023-02-02T10:51:00;7.00;;;5.50;;
18206;SDS011;9229;52.354;20.886;2023-02-02T10:56:09;8.45;;;5.07;;
18206;SDS011;9229;52.354;20.886;2023-02-02T11:01:13;6.10;;;5.50;;
18206;SDS011;9229;52.354;20.886;2023-02-02T11:06:17;5.47;;;4.60;;
18206;SDS011;9229;52.354;20.886;2023-02-02T11:11:38;5.90;;;5.35;;
18206;SDS011;9229;52.354;20.886;2023-02-02T11:16:42;8.32;;;5.63;;
18206;SDS011;9229;52.354;20.886;2023-02-02T11:21:46;10.95;;;6.50;;
18206;SDS011;9229;52.354;20.886;2023-02-02T11:26:52;11.32;;;7.70;;
18206;SDS011;9229;52.354;20.886;2023-02-02T11:31:57;12.15;;;7.05;;
18206;SDS011;9229;52.354;20.886;2023-02-02T11:37:00;12.88;;;8.82;;
18206;SDS011;9229;52.354;20.886;2023-02-02T11:42:14;11.13;;;7.60;;
18206;SDS011;9229;52.354;20.886;2023-02-02T11:47:20;11.55;;;7.32;;
18206;SDS011;9229;52.354;20.886;2023-02-02T11:52:27;17.42;;;10.55;;
18206;SDS011;9229;52.354;20.886;2023-02-02T11:57:33;12.27;;;8.13;;
18206;SDS011;9229;52.354;20.886;2023-02-02T12:02:35;11.85;;;8.07;;
18206;SDS011;9229;52.354;20.886;2023-02-02T12:07:39;14.07;;;8.98;;
18206;SDS011;9229;52.354;20.886;2023-02-02T12:12:48;16.17;;;7.65;;
18206;SDS011;9229;52.354;20.886;2023-02-02T12:17:59;13.02;;;8.07;;
18206;SDS011;9229;52.354;20.886;2023-02-02T12:23:11;14.85;;;9.20;;
18206;SDS011;9229;52.354;20.886;2023-02-02T12:28:26;13.55;;;7.32;;
18206;SDS011;9229;52.354;20.886;2023-02-02T12:33:49;12.70;;;6.63;;
18206;SDS011;9229;52.354;20.886;2023-02-02T12:38:59;7.35;;;6.55;;
18206;SDS011;9229;52.354;20.886;2023-02-02T12:44:12;6.60;;;5.82;;
18206;SDS011;9229;52.354;20.886;2023-02-02T12:49:34;6.53;;;5.90;;
18206;SDS011;9229;52.354;20.886;2023-02-02T12:54:51;10.27;;;5.25;;
18206;SDS011;9229;52.354;20.886;2023-02-02T13:00:11;3.63;;;3.33;;
18206;SDS011;9229;52.354;20.886;2023-02-02T13:05:31;3.85;;;3.58;;
18206;SDS011;9229;52.354;20.886;2023-02-02T13:10:54;3.88;;;3.55;;
18206;SDS011;9229;52.354;20.886;2023-02-02T13:16:04;3.92;;;3.63;;
18206;SDS011;9229;52.354;20.886;2023-02-02T13:21:10;3.08;;;2.97;;
18206;SDS011;9229;52.354;20.886;2023-02-02T13:26:17;3.42;;;3.22;;
18206;SDS011;9229;52.354;20.886;2023-02-02T13:31:26;3.63;;;3.20;;
18206;SDS011;9229;52.354;20.886;2023-02-02T13:36:35;6.45;;;3.70;;
18206;SDS011;9229;52.354;20.886;2023-02-02T13:41:43;4.45;;;4.00;;
18206;SDS011;9229;52.354;20.886;2023-02-02T13:46:49;3.53;;;3.33;;
18206;SDS011;9229;52.354;20.886;2023-02-02T13:52:01;4.00;;;3.70;;
18206;SDS011;9229;52.354;20.886;2023-02-02T13:57:32;3.83;;;3.53;;
18206;SDS011;9229;52.354;20.886;2023-02-02T14:02:57;5.50;;;3.65;;
18206;SDS011;9229;52.354;20.886;2023-02-02T14:08:04;3.38;;;3.28;;
18206;SDS011;9229;52.354;20.886;2023-02-02T14:13:13;3.15;;;2.90;;
18206;SDS011;9229;52.354;20.886;2023-02-02T14:18:54;3.67;;;3.38;;
18206;SDS011;9229;52.354;20.886;2023-02-02T14:23:57;3.40;;;3.20;;
18206;SDS011;9229;52.354;20.886;2023-02-02T14:29:00;6.40;;;3.88;;
18206;SDS011;9229;52.354;20.886;2023-02-02T14:34:23;3.58;;;3.38;;
18206;SDS011;9229;52.354;20.886;2023-02-02T14:39:38;4.15;;;3.33;;
18206;SDS011;9229;52.354;20.886;2023-02-02T14:50:30;7.13;;;5.65;;
18206;SDS011;9229;52.354;20.886;2023-02-02T14:55:48;4.03;;;3.38;;
18206;SDS011;9229;52.354;20.886;2023-02-02T15:01:03;4.20;;;3.00;;
18206;SDS011;9229;52.354;20.886;2023-02-02T15:06:23;4.07;;;3.10;;
18206;SDS011;9229;52.354;20.886;2023-02-02T15:11:28;6.10;;;3.08;;
18206;SDS011;9229;52.354;20.886;2023-02-02T15:16:33;2.58;;;1.60;;
18206;SDS011;9229;52.354;20.886;2023-02-02T15:21:42;2.25;;;2.15;;
18206;SDS011;9229;52.354;20.886;2023-02-02T15:26:48;2.60;;;2.33;;
18206;SDS011;9229;52.354;20.886;2023-02-02T15:31:53;3.40;;;1.90;;
18206;SDS011;9229;52.354;20.886;2023-02-02T15:37:01;15.68;;;2.40;;
18206;SDS011;9229;52.354;20.886;2023-02-02T15:42:12;1.70;;;1.60;;
18206;SDS011;9229;52.354;20.886;2023-02-02T15:47:34;2.38;;;2.20;;
18206;SDS011;9229;52.354;20.886;2023-02-02T15:52:43;2.42;;;2.22;;
18206;SDS011;9229;52.354;20.886;2023-02-02T15:57:47;3.22;;;2.92;;
18206;SDS011;9229;52.354;20.886;2023-02-02T16:02:52;3.40;;;2.78;;
18206;SDS011;9229;52.354;20.886;2023-02-02T16:08:00;2.60;;;2.50;;
18206;SDS011;9229;52.354;20.886;2023-02-02T16:13:14;2.40;;;2.28;;
18206;SDS011;9229;52.354;20.886;2023-02-02T16:18:23;2.40;;;2.30;;
18206;SDS011;9229;52.354;20.886;2023-02-02T16:23:27;2.00;;;2.00;;
18206;SDS011;9229;52.354;20.886;2023-02-02T16:28:32;2.33;;;2.13;;
18206;SDS011;9229;52.354;20.886;2023-02-02T16:33:36;2.28;;;2.08;;
18206;SDS011;9229;52.354;20.886;2023-02-02T16:38:41;2.33;;;2.13;;
18206;SDS011;9229;52.354;20.886;2023-02-02T16:43:43;2.28;;;2.08;;
18206;SDS011;9229;52.354;20.886;2023-02-02T16:48:45;3.25;;;2.88;;
18206;SDS011;9229;52.354;20.886;2023-02-02T16:53:59;2.63;;;2.38;;
18206;SDS011;9229;52.354;20.886;2023-02-02T16:59:14;6.05;;;2.90;;
18206;SDS011;9229;52.354;20.886;2023-02-02T17:04:22;4.35;;;3.40;;
18206;SDS011;9229;52.354;20.886;2023-02-02T17:09:31;3.78;;;3.38;;
18206;SDS011;9229;52.354;20.886;2023-02-02T17:14:35;8.43;;;2.85;;
18206;SDS011;9229;52.354;20.886;2023-02-02T17:19:49;3.30;;;2.97;;
18206;SDS011;9229;52.354;20.886;2023-02-02T17:24:53;3.22;;;2.95;;
18206;SDS011;9229;52.354;20.886;2023-02-02T17:29:58;3.92;;;3.08;;
18206;SDS011;9229;52.354;20.886;2023-02-02T17:35:01;3.47;;;3.17;;
18206;SDS011;9229;52.354;20.886;2023-02-02T17:40:16;3.72;;;3.40;;
18206;SDS011;9229;52.354;20.886;2023-02-02T17:45:20;5.97;;;3.85;;
18206;SDS011;9229;52.354;20.886;2023-02-02T17:50:23;3.55;;;3.28;;
18206;SDS011;9229;52.354;20.886;2023-02-02T17:55:28;5.20;;;3.30;;
18206;SDS011;9229;52.354;20.886;2023-02-02T18:00:32;3.88;;;3.60;;
18206;SDS011;9229;52.354;20.886;2023-02-02T18:05:36;5.65;;;3.65;;
18206;SDS011;9229;52.354;20.886;2023-02-02T18:10:39;7.63;;;3.60;;
18206;SDS011;9229;52.354;20.886;2023-02-02T18:15:43;4.00;;;3.28;;
18206;SDS011;9229;52.354;20.886;2023-02-02T18:20:48;8.32;;;4.28;;
18206;SDS011;9229;52.354;20.886;2023-02-02T18:25:53;4.65;;;3.83;;
18206;SDS011;9229;52.354;20.886;2023-02-02T18:30:55;3.90;;;3.55;;
18206;SDS011;9229;52.354;20.886;2023-02-02T18:35:59;4.78;;;3.35;;
18206;SDS011;9229;52.354;20.886;2023-02-02T18:41:02;3.55;;;3.22;;
18206;SDS011;9229;52.354;20.886;2023-02-02T18:46:05;4.25;;;3.38;;
18206;SDS011;9229;52.354;20.886;2023-02-02T18:51:16;4.00;;;3.67;;
18206;SDS011;9229;52.354;20.886;2023-02-02T18:56:20;4.72;;;3.95;;
18206;SDS011;9229;52.354;20.886;2023-02-02T19:01:22;5.70;;;3.92;;
18206;SDS011;9229;52.354;20.886;2023-02-02T19:06:34;4.75;;;3.75;;
18206;SDS011;9229;52.354;20.886;2023-02-02T19:11:58;4.05;;;3.72;;
18206;SDS011;9229;52.354;20.886;2023-02-02T19:17:11;7.50;;;4.40;;
18206;SDS011;9229;52.354;20.886;2023-02-02T19:22:21;6.45;;;4.63;;
18206;SDS011;9229;52.354;20.886;2023-02-02T19:27:34;6.82;;;5.93;;
18206;SDS011;9229;52.354;20.886;2023-02-02T19:32:36;9.82;;;5.93;;
18206;SDS011;9229;52.354;20.886;2023-02-02T19:37:40;6.30;;;5.05;;
18206;SDS011;9229;52.354;20.886;2023-02-02T19:42:44;4.18;;;3.85;;
18206;SDS011;9229;52.354;20.886;2023-02-02T19:47:47;4.88;;;3.90;;
18206;SDS011;9229;52.354;20.886;2023-02-02T19:52:53;3.78;;;3.47;;
18206;SDS011;9229;52.354;20.886;2023-02-02T19:57:58;5.70;;;3.78;;
18206;SDS011;9229;52.354;20.886;2023-02-02T20:03:02;5.50;;;3.83;;
18206;SDS011;9229;52.354;20.886;2023-02-02T20:08:21;4.53;;;3.30;;
18206;SDS011;9229;52.354;20.886;2023-02-02T20:13:34;4.03;;;3.55;;
18206;SDS011;9229;52.354;20.886;2023-02-02T20:18:52;4.95;;;3.50;;
18206;SDS011;9229;52.354;20.886;2023-02-02T20:23:56;4.28;;;3.83;;
18206;SDS011;9229;52.354;20.886;2023-02-02T20:29:10;3.95;;;3.63;;
18206;SDS011;9229;52.354;20.886;2023-02-02T20:34:19;4.15;;;3.53;;
18206;SDS011;9229;52.354;20.886;2023-02-02T20:39:26;4.15;;;3.42;;
18206;SDS011;9229;52.354;20.886;2023-02-02T20:44:38;3.67;;;3.42;;
18206;SDS011;9229;52.354;20.886;2023-02-02T20:49:43;5.70;;;3.88;;
18206;SDS011;9229;52.354;20.886;2023-02-02T20:54:48;8.73;;;6.43;;
18206;SDS011;9229;52.354;20.886;2023-02-02T20:59:51;6.05;;;4.43;;
18206;SDS011;9229;52.354;20.886;2023-02-02T21:04:56;5.22;;;3.90;;
18206;SDS011;9229;52.354;20.886;2023-02-02T21:10:00;10.68;;;4.00;;
18206;SDS011;9229;52.354;20.886;2023-02-02T21:15:06;5.43;;;4.65;;
18206;SDS011;9229;52.354;20.886;2023-02-02T21:20:10;5.53;;;4.65;;
18206;SDS011;9229;52.354;20.886;2023-02-02T21:25:13;7.65;;;4.80;;
18206;SDS011;9229;52.354;20.886;2023-02-02T21:30:18;5.28;;;4.78;;
18206;SDS011;9229;52.354;20.886;2023-02-02T21:35:21;9.40;;;5.65;;
18206;SDS011;9229;52.354;20.886;2023-02-02T21:40:26;9.90;;;7.15;;
18206;SDS011;9229;52.354;20.886;2023-02-02T21:45:40;9.18;;;6.20;;
18206;SDS011;9229;52.354;20.886;2023-02-02T21:50:44;13.68;;;6.60;;
18206;SDS011;9229;52.354;20.886;2023-02-02T21:55:49;10.45;;;6.30;;
18206;SDS011;9229;52.354;20.886;2023-02-02T22:00:56;9.15;;;7.05;;
18206;SDS011;9229;52.354;20.886;2023-02-02T22:06:18;11.20;;;6.40;;
18206;SDS011;9229;52.354;20.886;2023-02-02T22:11:24;8.57;;;6.93;;
18206;SDS011;9229;52.354;20.886;2023-02-02T22:16:33;14.10;;;7.80;;
18206;SDS011;9229;52.354;20.886;2023-02-02T22:21:44;12.38;;;6.97;;
18206;SDS011;9229;52.354;20.886;2023-02-02T22:26:47;10.55;;;6.88;;
18206;SDS011;9229;52.354;20.886;2023-02-02T22:32:02;11.40;;;7.53;;
18206;SDS011;9229;52.354;20.886;2023-02-02T22:37:04;10.40;;;7.15;;
18206;SDS011;9229;52.354;20.886;2023-02-02T22:42:06;7.40;;;6.68;;
18206;SDS011;9229;52.354;20.886;2023-02-02T22:47:17;8.35;;;6.10;;
18206;SDS011;9229;52.354;20.886;2023-02-02T22:52:23;6.15;;;5.40;;
18206;SDS011;9229;52.354;20.886;2023-02-02T22:57:30;8.73;;;7.80;;
18206;SDS011;9229;52.354;20.886;2023-02-02T23:02:34;6.68;;;5.50;;
18206;SDS011;9229;52.354;20.886;2023-02-02T23:07:39;12.10;;;8.45;;
18206;SDS011;9229;52.354;20.886;2023-02-02T23:12:43;9.82;;;5.55;;
18206;SDS011;9229;52.354;20.886;2023-02-02T23:17:47;9.43;;;6.68;;
18206;SDS011;9229;52.354;20.886;2023-02-02T23:22:50;6.55;;;5.95;;
18206;SDS011;9229;52.354;20.886;2023-02-02T23:27:54;6.85;;;5.63;;
18206;SDS011;9229;52.354;20.886;2023-02-02T23:33:00;5.63;;;5.13;;
18206;SDS011;9229;52.354;20.886;2023-02-02T23:38:02;11.15;;;6.25;;
18206;SDS011;9229;52.354;20.886;2023-02-02T23:43:04;5.65;;;5.25;;
18206;SDS011;9229;52.354;20.886;2023-02-02T23:48:08;9.88;;;6.97;;
18206;SDS011;9229;52.354;20.886;2023-02-02T23:53:12;8.10;;;5.10;;
18206;SDS011;9229;52.354;20.886;2023-02-02T23:58:15;5.28;;;4.75;;
